< Typhoon 199433 1994 Season Typhoon 199435 >
Typhoon 199434 (ZELDA)
General InformationTrack Information on Google MapsDetailed Wind InformationList of All Images || Disaster Info.ResourceGoogle EarthGE AnimationAtom FeedGeoJSON
Detalied Best Track (Time Zone = UTC)
Year Month Day Hour Lat. Long. Pressure (hPa) Wind (kt) Class Image Chart
1994 10 26 00 23.3 164.3 1008 0 2 Image Chart
1994 10 26 06 22.6 165.0 1008 0 2 Image Chart
1994 10 26 12 22.0 166.0 1008 0 2 Image Chart
1994 10 26 18 21.3 167.0 1008 0 2 Image Chart
1994 10 27 00 20.5 167.7 1008 0 2 Image Chart
1994 10 27 06 19.7 168.1 1006 0 2 Image Chart
1994 10 27 12 18.8 168.4 1006 0 2 Image Chart
1994 10 27 18 18.2 168.2 1006 0 2 Image Chart
1994 10 28 00 17.5 167.7 1006 0 2 Image Chart
1994 10 28 06 17.0 167.0 1004 0 2 Image Chart
1994 10 28 12 16.5 166.4 1004 0 2 Image Chart
1994 10 28 18 15.8 165.9 1004 0 2 Image Chart
1994 10 29 00 15.2 165.2 1004 0 2 Image Chart
1994 10 29 06 14.6 164.4 1004 0 2 Image Chart
1994 10 29 12 14.1 163.2 1004 0 2 Image Chart
1994 10 29 18 13.6 162.4 1004 0 2 Image Chart
1994 10 30 00 13.2 161.8 1002 0 2 Image Chart
1994 10 30 06 12.5 161.2 1002 0 2 Image Chart
1994 10 30 12 11.6 160.0 1002 0 2 Image Chart
1994 10 30 18 10.9 158.6 1002 0 2 Image Chart
1994 10 31 00 10.5 157.0 1002 0 2 Image Chart
1994 10 31 06 10.2 155.7 1000 0 2 Image Chart
1994 10 31 12 9.9 154.8 998 35 3 Image Chart
1994 10 31 18 9.7 153.9 994 40 3 Image Chart
1994 11 1 00 9.6 152.5 990 45 3 Image Chart
1994 11 1 06 9.8 151.5 985 50 4 Image Chart
1994 11 1 12 10.1 150.9 985 50 4 Image Chart
1994 11 1 18 10.5 150.2 980 55 4 Image Chart
1994 11 2 00 11.2 149.6 980 55 4 Image Chart
1994 11 2 06 12.2 148.8 980 55 4 Image Chart
1994 11 2 12 13.0 148.1 975 60 4 Image Chart
1994 11 2 18 14.2 147.4 970 65 5 Image Chart
1994 11 3 00 15.2 146.6 965 70 5 Image Chart
1994 11 3 06 16.2 145.8 960 75 5 Image Chart
1994 11 3 12 17.1 144.9 955 75 5 Image Chart
1994 11 3 18 17.7 143.8 950 80 5 Image Chart
1994 11 4 00 18.0 142.8 940 85 5 Image Chart
1994 11 4 06 18.3 141.4 930 90 5 Image Chart
1994 11 4 12 18.5 140.1 920 100 5 Image Chart
1994 11 4 18 18.6 138.9 910 105 5 Image Chart
1994 11 5 00 19.1 137.7 910 105 5 Image Chart
1994 11 5 06 19.9 136.4 910 105 5 Image Chart
1994 11 5 12 20.9 135.3 915 105 5 Image Chart
1994 11 5 18 21.9 134.3 925 100 5 Image Chart
1994 11 6 00 22.7 133.7 930 95 5 Image Chart
1994 11 6 06 23.8 133.2 935 90 5 Image Chart
1994 11 6 09 24.3 133.2 935 90 5 Image Chart
1994 11 6 12 24.8 133.3 940 90 5 Image Chart
1994 11 6 15 25.3 133.4 940 90 5 Image Chart
1994 11 6 18 25.8 133.7 945 85 5 Image Chart
1994 11 6 21 26.4 134.1 950 80 5 Image Chart
1994 11 7 00 27.1 134.5 955 75 5 Image Chart
1994 11 7 06 28.4 135.4 965 70 5 Image Chart
1994 11 7 12 29.5 137.4 975 65 5 Image Chart
1994 11 7 18 30.2 139.7 985 55 4 Image Chart
1994 11 8 00 30.7 141.6 994 0 6 Image Chart
1994 11 8 06 30.4 142.1 1002 0 6 Image Chart
1994 11 8 12 30.2 142.3 1010 0 6 Image Chart
1994 11 8 18 30.1 142.7 1014 0 6 Image Chart
1994 11 9 00 30.1 143.0 1016 0 6 Image Chart
1994 11 9 06 30.2 143.1 1018 0 6 Image Chart
Japan Meteorological Agency Best Track Data | Correction Date : 1995-01-30
< Typhoon 199433 1994 Season Typhoon 199435 >

Help